Mount Ida, AR (71957)

7:15 PM CDT on June 02, 2015 (GMT -0500)
Mount Ida | | Change Station
CLOSE
Current Station
Airport
Location: Mount Ida,
Elevation: 702 ft
Nearby Weather Stations

Elev 702 ft 34.55 °N, 93.58 °W | Updated 22 minutes ago

Overcast
Overcast
76 °F
Feels Like 76 °F
N
0
Wind Variable Wind from North

Today
High -- | Low -- °F
--% Chance of Precip.
Yesterday
High -- | Low -- °F
Precip. -- in
6:02 AM 8:22 PM
Full, 100% visible
Pressure 29.94 in
Visibility 10.0 miles
Clouds Few 4100 ft
Dew Point 67 °F
Humidity 74%
Rainfall 0.00 in
Snow Depth Not available.
UV 1 out of 12
Pollen 7.00 out of 12
Air Quality Not available.
Flu Activity No Activity
METAR KMWT 022353Z AUTO 00000KT 10SM FEW041 24/19 A2997 RMK AO2 SLP139 T02440194 10261 20239 56010

More Conditions Fewer Conditions

Pressure 29.94 in
Visibility 10.0 miles
Clouds Few 4100 ft
Dew Point 67 °F
Humidity 74%
Rainfall 0.00 in
Snow Depth Not available.
UV 1 out of 12
Pollen 7.00 out of 12
Air Quality Not available.
Flu Activity No Activity
METAR KMWT 022353Z AUTO 00000KT 10SM FEW041 24/19 A2997 RMK AO2 SLP139 T02440194 10261 20239 56010

More Conditions Fewer Conditions

10-Day Weather Forecast

×

Almanac

Astronomy

Jun. 02, 2015 Rise Set
Actual Time
Civil Twilight
Nautical Twilight
Astronomical Twilight
Moon
Length of Visible Light
Length of Day
Tomorrow will be .
, % of the Moon is Illuminated

Today's Extremes

State Highs State Lows

Community

WunderPhotos

Upload Photos

1,826,074 photos uploaded!

WunderBlogs® & News

Nearby

Air Quality

  Air Quality AQ Index Pollutant
Not available.

Snow Depth

Station Depth Elevation

Earthquake Activity

City Distance Mag. Time & Date
Minimum magnitude displayed is 2.5.

Coastal Water Temperatures

Place Temperature

Stations

Nearby Weather Stations

Station Location Temp. Windchill Dew Point Humidity Wind Precip. Elev Updated Type